createdAt,value
2023-08-15T00:01:58.376Z,6.72
2023-08-15T00:04:25.325Z,6.90
2023-08-15T00:06:52.169Z,7.15
2023-08-15T00:09:19.012Z,6.55
2023-08-15T00:11:45.875Z,7.38
2023-08-15T00:14:12.998Z,7.03
2023-08-15T00:16:39.926Z,6.40
2023-08-15T00:19:07.225Z,7.35
2023-08-15T00:21:34.090Z,6.95
2023-08-15T00:24:01.142Z,7.10
2023-08-15T00:26:27.975Z,7.38
2023-08-15T00:28:54.800Z,6.68
2023-08-15T00:31:21.791Z,7.20
2023-08-15T00:33:48.731Z,6.55
2023-08-15T00:36:15.582Z,7.07
2023-08-15T00:38:42.465Z,7.10
2023-08-15T00:41:09.240Z,7.60
2023-08-15T00:43:36.274Z,7.13
2023-08-15T00:46:06.644Z,7.53
2023-08-15T00:48:34.696Z,6.97
2023-08-15T00:51:02.821Z,6.70
2023-08-15T00:53:34.096Z,7.05
2023-08-15T00:56:01.192Z,6.82
2023-08-15T00:58:30.148Z,7.40
2023-08-15T01:00:57.401Z,7.35
2023-08-15T01:03:24.734Z,7.50
2023-08-15T01:05:51.666Z,7.10
2023-08-15T01:08:19.127Z,7.53
2023-08-15T01:10:47.158Z,7.40
2023-08-15T01:13:26.926Z,7.43
2023-08-15T01:15:54.125Z,7.68
2023-08-15T01:18:35.855Z,7.57
2023-08-15T01:21:03.886Z,7.60
2023-08-15T01:23:50.537Z,7.82
2023-08-15T01:26:17.545Z,7.07
2023-08-15T01:28:44.413Z,7.25
2023-08-15T01:31:41.422Z,7.00
2023-08-15T01:34:12.429Z,7.75
2023-08-15T01:36:49.552Z,7.65
2023-08-15T01:39:23.497Z,7.40
2023-08-15T01:41:53.383Z,6.97
2023-08-15T01:44:21.453Z,7.38
2023-08-15T01:46:48.595Z,7.47
2023-08-15T01:49:15.828Z,8.05
2023-08-15T01:51:43.549Z,8.30
2023-08-15T01:54:10.526Z,7.63
2023-08-15T01:56:37.405Z,7.22
2023-08-15T01:59:04.447Z,7.00
2023-08-15T02:01:31.307Z,7.40
2023-08-15T02:03:58.298Z,7.45
2023-08-15T02:06:25.199Z,7.20
2023-08-15T02:08:52.055Z,7.22
2023-08-15T02:11:18.947Z,7.75
2023-08-15T02:13:45.743Z,7.05
2023-08-15T02:16:12.630Z,7.10
2023-08-15T02:18:42.072Z,7.25
2023-08-15T02:21:09.343Z,7.88
2023-08-15T02:23:36.207Z,8.00
2023-08-15T02:26:03.050Z,7.45
2023-08-15T02:28:29.889Z,7.32
2023-08-15T02:30:56.791Z,7.60
2023-08-15T02:33:23.851Z,7.25
2023-08-15T02:35:52.479Z,8.13
2023-08-15T02:38:19.361Z,7.28
2023-08-15T02:40:46.169Z,7.40
2023-08-15T02:43:12.988Z,7.35
2023-08-15T02:45:39.837Z,6.78
2023-08-15T02:48:06.932Z,6.70
2023-08-15T02:50:33.808Z,7.47
2023-08-15T02:53:00.786Z,7.20
2023-08-15T02:55:27.605Z,7.55
2023-08-15T02:57:54.437Z,7.00
2023-08-15T03:00:21.507Z,7.35
2023-08-15T03:02:48.497Z,7.30
2023-08-15T03:05:15.470Z,7.35
2023-08-15T03:07:42.325Z,7.50
2023-08-15T03:10:09.417Z,7.70
2023-08-15T03:12:36.251Z,7.72
2023-08-15T03:15:03.244Z,7.70
2023-08-15T03:17:30.137Z,7.75
2023-08-15T03:19:58.379Z,7.28
2023-08-15T03:22:25.219Z,7.65
2023-08-15T03:24:52.241Z,6.72
2023-08-15T03:27:19.272Z,7.40
2023-08-15T03:29:46.273Z,7.68
2023-08-15T03:32:13.033Z,7.22
2023-08-15T03:34:40.001Z,7.20
2023-08-15T03:37:06.889Z,7.13
2023-08-15T03:39:33.847Z,6.93
2023-08-15T03:42:00.703Z,7.35
2023-08-15T03:44:27.516Z,7.47
2023-08-15T03:46:54.456Z,7.40
2023-08-15T03:49:21.472Z,7.82
2023-08-15T03:51:48.388Z,7.68
2023-08-15T03:54:15.249Z,7.13
2023-08-15T03:56:42.209Z,7.70
2023-08-15T03:59:09.137Z,7.28
2023-08-15T04:01:36.067Z,7.65
2023-08-15T04:04:04.345Z,8.15
2023-08-15T04:06:31.290Z,8.02
2023-08-15T04:08:58.185Z,7.88
2023-08-15T04:11:25.058Z,7.95
2023-08-15T04:13:51.931Z,8.27
2023-08-15T04:16:18.786Z,8.43
2023-08-15T04:18:45.564Z,7.78
2023-08-15T04:21:12.623Z,7.82
2023-08-15T04:23:39.517Z,8.02
2023-08-15T04:26:07.596Z,8.32
2023-08-15T04:28:34.500Z,8.43
2023-08-15T04:31:01.351Z,7.75
2023-08-15T04:33:28.311Z,7.22
2023-08-15T04:35:55.448Z,8.05
2023-08-15T04:38:22.275Z,7.10
2023-08-15T04:40:49.144Z,7.55
2023-08-15T04:43:16.968Z,7.63
2023-08-15T04:45:46.753Z,7.65
2023-08-15T04:48:14.581Z,7.50
2023-08-15T04:50:41.659Z,6.95
2023-08-15T04:53:08.670Z,7.47
2023-08-15T04:55:35.869Z,7.00
2023-08-15T04:58:03.371Z,7.30
2023-08-15T05:00:33.115Z,7.43
2023-08-15T05:05:28.783Z,7.78
2023-08-15T05:07:55.663Z,7.72
2023-08-15T05:10:22.486Z,8.02
2023-08-15T05:12:49.569Z,7.07
2023-08-15T05:15:16.470Z,6.70
2023-08-15T05:17:45.093Z,6.72
2023-08-15T05:20:13.353Z,6.40
2023-08-15T05:22:40.461Z,6.25
2023-08-15T05:25:07.851Z,5.75
2023-08-15T05:27:34.931Z,6.30
2023-08-15T05:30:01.838Z,5.75
2023-08-15T05:32:28.749Z,5.80
2023-08-15T05:34:55.754Z,5.78
2023-08-15T05:37:22.836Z,5.55
2023-08-15T05:39:50.337Z,5.97
2023-08-15T05:42:19.892Z,5.53
2023-08-15T05:44:47.529Z,4.95
2023-08-15T05:47:14.613Z,5.30
2023-08-15T05:49:43.364Z,4.90
2023-08-15T05:52:10.443Z,4.40
2023-08-15T05:54:37.422Z,4.95
2023-08-15T05:57:04.654Z,4.65
2023-08-15T05:59:31.598Z,3.85
2023-08-15T06:01:58.430Z,4.30
2023-08-15T06:04:25.367Z,3.92
2023-08-15T06:06:52.213Z,3.80
2023-08-15T06:09:19.474Z,4.10
2023-08-15T06:11:46.368Z,3.65
2023-08-15T06:14:13.175Z,3.70
2023-08-15T06:16:40.036Z,3.83
2023-08-15T06:19:07.000Z,4.45
2023-08-15T06:21:33.844Z,3.63
2023-08-15T06:24:00.652Z,3.80
2023-08-15T06:26:27.533Z,3.63
2023-08-15T06:28:54.295Z,3.45
2023-08-15T06:31:21.371Z,3.63
2023-08-15T06:33:48.242Z,3.67
2023-08-15T06:36:15.088Z,3.85
2023-08-15T06:38:41.907Z,3.55
2023-08-15T06:41:08.748Z,3.50
2023-08-15T06:43:35.567Z,3.70
2023-08-15T06:46:02.481Z,3.67
2023-08-15T06:48:29.468Z,4.03
2023-08-15T06:50:56.416Z,3.60
2023-08-15T06:53:23.282Z,3.28
2023-08-15T06:55:50.813Z,3.40
2023-08-15T06:58:18.563Z,3.50
2023-08-15T07:00:45.723Z,3.90
2023-08-15T07:03:14.295Z,4.03
2023-08-15T07:05:41.940Z,3.50
2023-08-15T07:08:09.077Z,3.83
2023-08-15T07:10:36.547Z,4.05
2023-08-15T07:13:04.008Z,4.10
2023-08-15T07:15:31.760Z,3.38
2023-08-15T07:17:59.341Z,3.53
2023-08-15T07:20:28.311Z,3.75
2023-08-15T07:22:57.085Z,3.80
2023-08-15T07:25:24.206Z,4.03
2023-08-15T07:27:51.130Z,3.80
2023-08-15T07:30:18.023Z,3.80
2023-08-15T07:32:45.743Z,3.80
2023-08-15T07:35:12.715Z,3.55
2023-08-15T07:37:39.594Z,3.40
2023-08-15T07:40:11.543Z,3.70
2023-08-15T07:42:38.740Z,3.65
2023-08-15T07:45:06.484Z,3.42
2023-08-15T07:47:35.756Z,3.40
2023-08-15T07:50:20.446Z,3.53
2023-08-15T07:52:47.577Z,3.53
2023-08-15T07:55:14.386Z,3.22
2023-08-15T07:57:41.356Z,3.45
2023-08-15T08:00:09.517Z,3.55
2023-08-15T08:02:36.408Z,3.50
2023-08-15T08:05:07.949Z,4.13
2023-08-15T08:07:35.694Z,4.18
2023-08-15T08:10:02.697Z,3.92
2023-08-15T08:12:30.435Z,4.10
2023-08-15T08:14:58.300Z,4.07
2023-08-15T08:17:25.665Z,3.83
2023-08-15T08:19:52.590Z,3.65
2023-08-15T08:22:19.837Z,3.90
2023-08-15T08:24:49.490Z,4.45
2023-08-15T08:27:16.402Z,3.78
2023-08-15T08:29:43.252Z,4.13
2023-08-15T08:32:10.101Z,4.05
2023-08-15T08:34:36.997Z,4.03
2023-08-15T08:37:03.900Z,4.35
2023-08-15T08:39:32.618Z,4.47
2023-08-15T08:42:00.354Z,4.00
2023-08-15T08:44:30.235Z,3.70
2023-08-15T08:46:59.221Z,3.97
2023-08-15T08:49:28.681Z,4.15
2023-08-15T08:51:58.140Z,3.72
2023-08-15T08:54:41.054Z,4.00
2023-08-15T08:57:12.736Z,4.05
2023-08-15T08:59:43.505Z,4.20
2023-08-15T09:02:13.903Z,4.68
2023-08-15T09:04:42.043Z,4.00
2023-08-15T09:07:08.965Z,4.05
2023-08-15T09:09:35.864Z,4.25
2023-08-15T09:12:02.740Z,3.90
2023-08-15T09:14:29.629Z,4.15
2023-08-15T09:16:56.474Z,3.90
2023-08-15T09:19:23.293Z,4.15
2023-08-15T09:21:50.380Z,4.28
2023-08-15T09:24:17.184Z,4.10
2023-08-15T09:26:44.253Z,3.65
2023-08-15T09:29:13.748Z,3.80
2023-08-15T09:31:40.886Z,4.30
2023-08-15T09:34:11.731Z,5.03
2023-08-15T09:36:39.399Z,4.70
2023-08-15T09:39:09.973Z,4.45
2023-08-15T09:41:41.865Z,4.25
2023-08-15T09:44:08.901Z,3.97
2023-08-15T09:46:36.626Z,4.75
2023-08-15T09:49:03.866Z,4.30
2023-08-15T09:51:31.260Z,4.03
2023-08-15T09:54:01.573Z,4.05
2023-08-15T09:56:28.548Z,4.15
2023-08-15T09:58:55.435Z,3.80
2023-08-15T10:01:29.034Z,4.30
2023-08-15T10:03:58.498Z,3.42
2023-08-15T10:06:26.316Z,3.83
2023-08-15T10:08:53.542Z,3.90
2023-08-15T10:11:21.170Z,4.10
2023-08-15T10:13:49.187Z,3.72
2023-08-15T10:16:16.626Z,3.70
2023-08-15T10:18:58.550Z,3.60
2023-08-15T10:21:27.980Z,4.10
2023-08-15T10:23:56.312Z,3.83
2023-08-15T10:26:23.315Z,3.88
2023-08-15T10:28:50.142Z,4.65
2023-08-15T10:31:36.269Z,3.97
2023-08-15T10:34:04.888Z,4.25
2023-08-15T10:36:32.125Z,3.70
2023-08-15T10:39:08.119Z,4.00
2023-08-15T10:41:38.566Z,4.30
2023-08-15T10:44:07.499Z,3.78
2023-08-15T10:46:36.447Z,4.15
2023-08-15T10:49:12.094Z,4.00
2023-08-15T10:51:43.579Z,3.97
2023-08-15T10:54:12.583Z,4.07
2023-08-15T10:56:41.906Z,4.38
2023-08-15T10:59:14.532Z,4.20
2023-08-15T11:01:43.432Z,4.00
2023-08-15T11:04:16.415Z,4.15
2023-08-15T11:06:48.209Z,4.35
2023-08-15T11:09:16.248Z,4.40
2023-08-15T11:11:43.881Z,4.00
2023-08-15T11:14:20.501Z,4.30
2023-08-15T11:16:48.596Z,4.18
2023-08-15T11:19:17.250Z,4.50
2023-08-15T11:21:44.337Z,4.35
2023-08-15T11:24:11.780Z,4.57
2023-08-15T11:26:38.612Z,4.15
2023-08-15T11:29:05.756Z,4.82
2023-08-15T11:31:33.269Z,4.90
2023-08-15T11:34:01.668Z,4.38
2023-08-15T11:36:28.626Z,4.22
2023-08-15T11:38:57.042Z,4.90
2023-08-15T11:41:24.914Z,4.78
2023-08-15T11:43:51.842Z,4.50
2023-08-15T11:46:18.767Z,4.47
2023-08-15T11:48:46.534Z,4.38
2023-08-15T11:51:20.914Z,4.72
2023-08-15T11:53:52.551Z,4.57
2023-08-15T11:56:20.037Z,4.22
2023-08-15T11:58:47.461Z,4.40
2023-08-15T12:01:14.498Z,5.00
2023-08-15T12:03:41.608Z,4.43
2023-08-15T12:06:12.136Z,4.60
2023-08-15T12:08:42.932Z,5.28
2023-08-15T12:13:39.608Z,5.72
2023-08-15T12:16:09.035Z,4.97
2023-08-15T12:18:36.581Z,4.30
2023-08-15T12:21:05.868Z,4.80
2023-08-15T12:23:32.884Z,4.60
2023-08-15T12:25:59.707Z,4.80
2023-08-15T12:28:28.763Z,4.55
2023-08-15T12:30:56.686Z,4.50
2023-08-15T12:33:39.057Z,4.90
2023-08-15T12:36:08.248Z,4.70
2023-08-15T12:38:35.289Z,4.75
2023-08-15T12:41:02.964Z,4.70
2023-08-15T12:43:29.828Z,4.90
2023-08-15T12:45:56.815Z,4.68
2023-08-15T12:48:23.841Z,5.03
2023-08-15T12:50:50.805Z,4.60
2023-08-15T12:53:18.840Z,4.50
2023-08-15T12:55:46.580Z,4.80
2023-08-15T12:58:13.385Z,4.70
2023-08-15T13:00:42.673Z,4.68
2023-08-15T13:03:10.657Z,4.38
2023-08-15T13:05:37.762Z,4.40
2023-08-15T13:08:04.856Z,4.63
2023-08-15T13:10:31.714Z,4.15
2023-08-15T13:12:58.497Z,3.88
2023-08-15T13:15:25.599Z,4.43
2023-08-15T13:17:52.627Z,4.57
2023-08-15T13:20:19.555Z,4.50
2023-08-15T13:22:46.442Z,5.38
2023-08-15T13:25:13.291Z,4.90
2023-08-15T13:27:40.077Z,4.55
2023-08-15T13:30:08.692Z,5.28
2023-08-15T13:32:35.655Z,5.00
2023-08-15T13:35:03.725Z,4.97
2023-08-15T13:37:30.539Z,5.47
2023-08-15T13:39:58.770Z,5.13
2023-08-15T13:42:36.103Z,5.00
2023-08-15T13:45:06.800Z,4.88
2023-08-15T13:47:38.542Z,4.97
2023-08-15T13:50:06.815Z,4.55
2023-08-15T13:52:34.029Z,4.47
2023-08-15T13:55:01.162Z,4.72
2023-08-15T13:57:28.183Z,5.38
2023-08-15T13:59:55.986Z,4.93
2023-08-15T14:02:22.945Z,5.47
2023-08-15T14:04:49.980Z,4.95
2023-08-15T14:07:16.913Z,5.05
2023-08-15T14:09:43.692Z,5.60
2023-08-15T14:12:10.568Z,5.32
2023-08-15T14:14:38.110Z,5.00
2023-08-15T14:17:07.508Z,4.70
2023-08-15T14:19:34.404Z,5.22
2023-08-15T14:22:01.236Z,5.00
2023-08-15T14:24:28.218Z,4.70
2023-08-15T14:26:55.028Z,4.68
2023-08-15T14:29:21.917Z,5.28
2023-08-15T14:31:48.736Z,5.03
2023-08-15T14:34:15.637Z,4.80
2023-08-15T14:36:42.607Z,5.18
2023-08-15T14:39:09.541Z,4.75
2023-08-15T14:41:36.523Z,4.60
2023-08-15T14:44:03.372Z,4.57
2023-08-15T14:46:30.250Z,4.88
2023-08-15T14:48:57.340Z,5.20
2023-08-15T14:51:24.159Z,4.50
2023-08-15T14:53:50.965Z,4.72
2023-08-15T14:56:18.622Z,5.15
2023-08-15T14:58:46.501Z,5.43
2023-08-15T15:01:13.663Z,5.30
2023-08-15T15:03:40.955Z,4.85
2023-08-15T15:06:07.835Z,5.30
2023-08-15T15:08:34.922Z,4.45
2023-08-15T15:11:04.333Z,4.70
2023-08-15T15:13:31.452Z,4.60
2023-08-15T15:15:58.395Z,4.90
2023-08-15T15:18:25.282Z,5.25
2023-08-15T15:20:52.158Z,5.00
2023-08-15T15:23:19.576Z,5.13
2023-08-15T15:25:46.986Z,5.07
2023-08-15T15:28:13.820Z,5.40
2023-08-15T15:30:40.960Z,5.00
2023-08-15T15:33:07.856Z,4.40
2023-08-15T15:35:34.765Z,4.60
2023-08-15T15:38:01.558Z,4.80
2023-08-15T15:40:28.465Z,4.50
2023-08-15T15:42:55.359Z,5.25
2023-08-15T15:45:22.366Z,4.63
2023-08-15T15:47:49.543Z,5.03
2023-08-15T15:50:20.772Z,4.65
2023-08-15T15:52:48.375Z,4.60
2023-08-15T15:55:22.260Z,4.75
2023-08-15T15:57:51.487Z,4.70
2023-08-15T16:00:20.662Z,4.68
2023-08-15T16:02:47.818Z,4.97
2023-08-15T16:05:15.002Z,4.57
2023-08-15T16:07:42.060Z,4.53
2023-08-15T16:10:11.597Z,4.78
2023-08-15T16:12:38.468Z,4.70
2023-08-15T16:15:05.670Z,4.95
2023-08-15T16:17:33.792Z,4.65
2023-08-15T16:20:00.728Z,5.20
2023-08-15T16:22:27.824Z,4.72
2023-08-15T16:24:54.740Z,4.38
2023-08-15T16:27:21.556Z,6.10
2023-08-15T16:29:49.374Z,4.57
2023-08-15T16:32:17.571Z,4.43
2023-08-15T16:34:44.779Z,5.00
2023-08-15T16:37:11.668Z,7.20
2023-08-15T16:39:38.729Z,5.65
2023-08-15T16:42:05.752Z,4.80
2023-08-15T16:44:32.858Z,4.53
2023-08-15T16:46:59.780Z,4.90
2023-08-15T16:49:27.025Z,4.93
2023-08-15T16:51:53.970Z,4.50
2023-08-15T16:54:20.863Z,5.07
2023-08-15T16:56:47.713Z,4.85
2023-08-15T16:59:15.007Z,4.50
2023-08-15T17:01:41.880Z,4.63
2023-08-15T17:04:09.489Z,4.90
2023-08-15T17:06:36.345Z,4.75
2023-08-15T17:09:04.765Z,5.00
2023-08-15T17:11:31.581Z,4.97
2023-08-15T17:13:58.377Z,5.53
2023-08-15T17:16:25.287Z,4.72
2023-08-15T17:18:52.223Z,5.00
2023-08-15T17:21:19.190Z,5.28
2023-08-15T17:23:46.039Z,4.90
2023-08-15T17:26:12.943Z,5.07
2023-08-15T17:28:39.757Z,6.00
2023-08-15T17:31:06.593Z,5.57
2023-08-15T17:33:33.500Z,5.65
2023-08-15T17:36:00.404Z,6.00
2023-08-15T17:38:27.179Z,5.72
2023-08-15T17:40:54.106Z,5.63
2023-08-15T17:43:21.024Z,5.70
2023-08-15T17:45:47.823Z,5.82
2023-08-15T17:48:14.747Z,5.97
2023-08-15T17:50:41.643Z,6.10
2023-08-15T17:53:08.592Z,6.00
2023-08-15T17:55:35.466Z,6.28
2023-08-15T17:58:02.312Z,6.13
2023-08-15T18:00:30.008Z,6.53
2023-08-15T18:02:57.637Z,6.78
2023-08-15T18:05:25.852Z,6.60
2023-08-15T18:07:52.741Z,6.72
2023-08-15T18:10:20.492Z,6.47
2023-08-15T18:12:47.328Z,6.32
2023-08-15T18:15:14.175Z,7.13
2023-08-15T18:17:41.051Z,7.18
2023-08-15T18:20:08.319Z,7.25
2023-08-15T18:22:37.051Z,7.70
2023-08-15T18:25:04.520Z,7.43
2023-08-15T18:27:31.342Z,6.97
2023-08-15T18:29:58.276Z,7.45
2023-08-15T18:32:25.862Z,7.28
2023-08-15T18:34:52.957Z,7.45
2023-08-15T18:37:19.789Z,7.75
2023-08-15T18:39:46.681Z,7.38
2023-08-15T18:42:13.473Z,7.50
2023-08-15T18:44:40.298Z,7.00
2023-08-15T18:47:07.602Z,7.25
2023-08-15T18:49:34.541Z,8.02
2023-08-15T18:52:01.766Z,7.25
2023-08-15T18:54:28.975Z,8.10
2023-08-15T18:56:55.758Z,8.10
2023-08-15T18:59:24.418Z,8.02
2023-08-15T19:01:51.520Z,7.90
2023-08-15T19:04:18.407Z,7.97
2023-08-15T19:06:45.294Z,7.63
2023-08-15T19:09:12.267Z,8.27
2023-08-15T19:11:39.095Z,7.80
2023-08-15T19:14:05.862Z,7.65
2023-08-15T19:16:32.691Z,7.93
2023-08-15T19:19:04.069Z,8.68
2023-08-15T19:21:31.400Z,8.20
2023-08-15T19:23:58.244Z,8.50
2023-08-15T19:26:25.130Z,7.95
2023-08-15T19:28:51.994Z,8.00
2023-08-15T19:31:18.873Z,8.45
2023-08-15T19:33:45.760Z,8.52
2023-08-15T19:36:12.633Z,8.68
2023-08-15T19:38:39.685Z,8.55
2023-08-15T19:41:06.617Z,7.93
2023-08-15T19:43:33.594Z,8.30
2023-08-15T19:46:00.516Z,8.57
2023-08-15T19:48:28.179Z,8.75
2023-08-15T19:50:55.038Z,8.80
2023-08-15T19:53:22.009Z,9.45
2023-08-15T19:55:48.821Z,9.15
2023-08-15T19:58:16.615Z,9.27
2023-08-15T20:00:44.449Z,8.82
2023-08-15T20:03:11.545Z,8.98
2023-08-15T20:05:38.433Z,9.82
2023-08-15T20:08:06.287Z,9.65
2023-08-15T20:10:33.341Z,10.13
2023-08-15T20:13:00.222Z,9.18
2023-08-15T20:15:27.140Z,9.80
2023-08-15T20:17:54.535Z,9.43
2023-08-15T20:20:22.741Z,9.63
2023-08-15T20:22:49.635Z,9.60
2023-08-15T20:25:16.493Z,10.43
2023-08-15T20:27:43.314Z,9.43
2023-08-15T20:30:10.682Z,9.48
2023-08-15T20:32:37.675Z,9.63
2023-08-15T20:35:06.038Z,9.63
2023-08-15T20:37:34.200Z,9.48
2023-08-15T20:40:01.182Z,9.52
2023-08-15T20:42:28.068Z,9.60
2023-08-15T20:44:55.085Z,10.02
2023-08-15T20:47:22.084Z,9.27
2023-08-15T20:49:48.972Z,9.52
2023-08-15T20:52:15.834Z,9.35
2023-08-15T20:54:42.817Z,9.20
2023-08-15T20:57:09.593Z,9.48
2023-08-15T20:59:36.552Z,9.57
2023-08-15T21:02:04.729Z,9.75
2023-08-15T21:04:32.127Z,9.05
2023-08-15T21:06:59.167Z,9.57
2023-08-15T21:09:26.023Z,9.27
2023-08-15T21:11:52.888Z,8.70
2023-08-15T21:14:19.706Z,9.05
2023-08-15T21:16:46.615Z,8.88
2023-08-15T21:19:13.514Z,8.88
2023-08-15T21:21:40.342Z,8.65
2023-08-15T21:24:07.572Z,7.90
2023-08-15T21:26:34.595Z,7.80
2023-08-15T21:29:02.210Z,7.78
2023-08-15T21:31:30.037Z,7.53
2023-08-15T21:33:57.004Z,7.70
2023-08-15T21:36:23.951Z,8.65
2023-08-15T21:38:50.840Z,8.52
2023-08-15T21:41:18.132Z,8.68
2023-08-15T21:43:45.048Z,8.40
2023-08-15T21:46:11.902Z,8.45
2023-08-15T21:48:38.775Z,8.70
2023-08-15T21:51:05.575Z,8.45
2023-08-15T21:53:32.389Z,8.63
2023-08-15T21:55:59.265Z,9.07
2023-08-15T21:58:26.107Z,8.77
2023-08-15T22:00:52.941Z,8.68
2023-08-15T22:03:19.821Z,8.88
2023-08-15T22:05:47.866Z,9.10
2023-08-15T22:08:15.364Z,9.55
2023-08-15T22:10:42.249Z,9.32
2023-08-15T22:13:09.062Z,8.48
2023-08-15T22:15:35.921Z,9.05
2023-08-15T22:18:17.792Z,6.90
2023-08-15T22:20:47.075Z,5.60
2023-08-15T22:23:14.203Z,5.50
2023-08-15T22:25:47.809Z,6.18
2023-08-15T22:28:15.798Z,5.00
2023-08-15T22:30:42.982Z,5.03
2023-08-15T22:33:10.123Z,4.25
2023-08-15T22:35:42.655Z,4.03
2023-08-15T22:38:09.906Z,3.22
2023-08-15T22:40:36.783Z,3.20
2023-08-15T22:43:04.825Z,3.10
2023-08-15T22:45:31.896Z,2.38
2023-08-15T22:47:58.992Z,1.58
2023-08-15T22:50:26.036Z,1.60
2023-08-15T22:52:54.946Z,1.25
2023-08-15T22:55:21.832Z,1.30
2023-08-15T22:57:49.036Z,1.20
2023-08-15T23:00:15.946Z,1.33
2023-08-15T23:02:43.458Z,1.58
2023-08-15T23:05:10.589Z,1.38
2023-08-15T23:07:37.523Z,1.30
2023-08-15T23:10:05.927Z,0.85
2023-08-15T23:12:32.909Z,0.80
2023-08-15T23:14:59.822Z,0.95
2023-08-15T23:17:26.683Z,1.05
2023-08-15T23:19:53.545Z,0.80
2023-08-15T23:22:20.382Z,0.80
2023-08-15T23:24:47.263Z,0.70
2023-08-15T23:27:14.183Z,0.90
2023-08-15T23:29:41.147Z,0.82
2023-08-15T23:32:08.071Z,0.70
2023-08-15T23:34:34.909Z,0.90
2023-08-15T23:37:01.745Z,0.88
2023-08-15T23:39:28.635Z,1.02
2023-08-15T23:41:55.444Z,1.05
2023-08-15T23:44:22.295Z,0.75
2023-08-15T23:46:49.365Z,0.95
2023-08-15T23:49:16.279Z,1.40
2023-08-15T23:51:43.250Z,1.00
2023-08-15T23:54:10.148Z,1.10
2023-08-15T23:56:36.955Z,1.40
2023-08-15T23:59:04.143Z,1.00
